Flight Track Log - Related Links

Times and Time Zones

All times are in EDT time to prevent confusion due to time zone crossing. See the N799J flight status page for this flight to view local times or setup timezone preferences in your user account.

Time Position Orientation Groundspeed Altitude Reporting Facility
EDT Latitude Longitude Course Direction KTS MPH feet Rate Location/Type
Wed 01:01:49 PM 40.9333 -72.3000 237° Southwest 95 109 1,600  Level New York TRACON
Wed 01:02:43 PM 40.9167 -72.3333 237° Southwest 92 106 2,100 526 Climbing New York TRACON
Wed 01:03:43 PM 40.9333 -72.3500 323° Northwest 88 101 2,600 526 Climbing New York TRACON
Wed 01:04:37 PM 40.9333 -72.3833 270° West 92 106 3,100 474 Climbing New York TRACON
Wed 01:05:37 PM 40.9500 -72.4167 304° West 98 113 3,500 450 Climbing New York TRACON
Wed 01:06:37 PM 40.9500 -72.4500 270° West 97 112 4,000 550 Climbing New York TRACON
Wed 01:07:37 PM 40.9667 -72.4833 304° West 97 112 4,600 550 Climbing New York TRACON
Wed 01:08:37 PM 40.9833 -72.5167 304° West 96 110 5,100 500 Climbing New York TRACON
Wed 01:09:37 PM 40.9833 -72.5500 270° West 93 107 5,600 550 Climbing New York TRACON
Wed 01:10:37 PM 41.0000 -72.5667 323° Northwest 87 100 6,200 700 Climbing New York TRACON
Wed 01:11:37 PM 41.0000 -72.6000 270° West 88 101 7,000 500 Climbing New York TRACON
Wed 01:12:37 PM 41.0167 -72.6333 304° West 98 113 7,200 100 Climbing New York TRACON
Wed 01:13:37 PM 41.0333 -72.6833 294° West 122 140 7,200  Level New York TRACON
Wed 01:14:37 PM 41.0333 -72.7167 270° West 121 139 7,200  Level New York TRACON
Wed 01:15:31 PM 41.0500 -72.7500 304° West 119 137 7,200  Level New York TRACON
Wed 01:16:31 PM 41.0667 -72.8000 294° West 122 140 7,200  Level New York TRACON
Wed 01:17:31 PM 41.0667 -72.8333 270° West 123 142 7,200  Level New York TRACON
Wed 01:18:31 PM 41.0833 -72.8833 294° West 124 143 7,200  Level New York TRACON
Wed 01:19:31 PM 41.1000 -72.9167 304° West 125 144 7,200  Level New York TRACON
Wed 01:20:31 PM 41.1167 -72.9667 294° West 122 140 7,200  Level New York TRACON
Wed 01:21:31 PM 41.1333 -73.0000 304° West 124 143 7,200  Level New York TRACON
Wed 01:22:31 PM 41.1333 -73.0500 270° West 124 143 7,200  Level New York TRACON
Wed 01:23:31 PM 41.1500 -73.0833 304° West 127 146 7,200  Level New York TRACON
Wed 01:24:31 PM 41.1667 -73.1333 294° West 122 140 7,200  Level New York TRACON
Wed 01:25:31 PM 41.2000 -73.1333 360° North 126 145 7,200  Level New York TRACON
Wed 01:26:31 PM 41.2333 -73.1500 339° North 122 140 7,200  Level New York TRACON
Wed 01:27:31 PM 41.2667 -73.1667 339° North 124 143 7,200 -30 Level New York TRACON
Wed 01:29:53 PM 41.3392 -73.2031 339° North 129 148 7,100 -30 Descending Boston Center
Wed 01:30:53 PM 41.3661 -73.2144 342° North 129 148 7,100  Level Boston Center
Wed 01:31:54 PM 41.4014 -73.2261 346° North 129 148 7,100  Level Boston Center
Wed 01:32:52 PM 41.4306 -73.2403 340° North 129 148 7,100  Level Boston Center
Wed 01:33:53 PM 41.4681 -73.2544 344° North 129 148 7,100  Level Boston Center
Wed 01:34:54 PM 41.4969 -73.2661 343° North 129 148 7,100  Level Boston Center
Wed 01:35:54 PM 41.5322 -73.2831 340° North 129 148 7,100 -50 Level Boston Center
Wed 01:36:55 PM 41.5636 -73.2947 344° North 129 148 7,000 -50 Descending Boston Center
Wed 01:37:53 PM 41.5967 -73.3089 342° North 124 143 7,000  Level Boston Center
Wed 01:38:54 PM 41.6258 -73.3233 340° North 124 143 7,000  Level Boston Center
Wed 01:39:54 PM 41.6633 -73.3378 344° North 124 143 7,000  Level Boston Center
Wed 01:40:55 PM 41.6903 -73.3492 342° North 124 143 7,000  Level Boston Center
Wed 01:41:53 PM 41.7256 -73.3664 340° North 124 143 7,000  Level Boston Center
Wed 01:42:53 PM 41.7567 -73.3781 344° North 129 148 7,000  Level Boston Center
Wed 01:43:54 PM 41.7919 -73.3922 343° North 130 150 7,000  Level Boston Center
Wed 01:44:54 PM 41.8231 -73.4039 344° North 130 150 7,000  Level Boston Center
Wed 01:45:54 PM 41.8606 -73.4214 341° North 130 150 7,000  Level Boston Center
Wed 01:46:53 PM 41.8917 -73.4328 345° North 130 150 7,000  Level Boston Center
Wed 01:47:53 PM 41.9269 -73.4475 343° North 130 150 7,000  Level Boston Center
Wed 01:48:42 PM 41.9497 -73.4617 335° Northwest 117 135 7,000  Level Boston Center
Wed 01:49:18 PM 41.9686 -73.4706 341° North 113 130 7,000  Level Boston Center
Wed 01:49:52 PM 41.9872 -73.4736 353° North 119 137 7,000  Level Boston Center
Wed 01:50:53 PM 42.0161 -73.4881 340° North 114 131 7,000  Level Boston Center
Wed 01:51:54 PM 42.0494 -73.5025 342° North 114 131 7,000  Level Boston Center
Wed 01:52:54 PM 42.0828 -73.5169 342° North 114 131 7,000  Level Boston Center
Wed 01:53:52 PM 42.1158 -73.5233 352° North 114 131 7,000  Level Boston Center
Wed 01:54:22 PM 42.1306 -73.5150 23° Northeast 132 152 7,000  Level Boston Center
Wed 01:54:52 PM 42.1472 -73.5097 13° North 109 125 7,000  Level Boston Center
Wed 01:55:22 PM 42.1661 -73.5044 12° North 125 144 7,000  Level Boston Center
Wed 01:55:53 PM 42.1828 -73.5047 359° North 109 125 7,000  Level Boston Center
Wed 01:56:23 PM 42.1994 -73.5022 North 124 143 7,000  Level Boston Center
Wed 01:56:53 PM 42.2161 -73.5025 359° North 119 137 7,000  Level Boston Center
Wed 01:57:24 PM 42.2328 -73.5028 359° North 122 140 7,000  Level Boston Center
Wed 01:57:54 PM 42.2494 -73.5003 North 119 137 7,000  Level Boston Center
Wed 01:58:30 PM 42.2725 -73.4922 14° North 125 144 7,000  Level Boston Center
Wed 01:59:31 PM 42.3081 -73.4872 North 127 146 7,000  Level Boston Center
Wed 02:00:32 PM 42.3436 -73.4822 North 129 148 7,000  Level Boston Center
Wed 02:01:32 PM 42.3792 -73.4717 12° North 130 150 7,000  Level Boston Center
Wed 02:02:33 PM 42.4144 -73.4664 North 129 148 7,000  Level Boston Center
Wed 02:03:35 PM 42.4522 -73.4586 North 133 153 7,000  Level Boston Center
Wed 02:04:36 PM 42.4875 -73.4508 North 131 151 7,000  Level Boston Center
Wed 02:05:36 PM 42.5231 -73.4431 North 129 148 7,000  Level Boston Center
Wed 02:06:36 PM 42.5586 -73.4350 North 128 147 7,000  Level Boston Center
Wed 02:07:37 PM 42.5942 -73.4300 North 127 146 7,000  Level Boston Center
Wed 02:08:31 PM 42.6275 -73.4219 10° North 131 151 7,000  Level Boston Center
Wed 02:09:32 PM 42.6631 -73.4142 North 129 148 7,000  Level Boston Center
Wed 02:10:35 PM 42.7006 -73.4092 North 131 151 7,000  Level Boston Center
Wed 02:11:29 PM 42.7319 -73.4011 11° North 132 152 7,000  Level Boston Center
Wed 02:12:30 PM 42.7694 -73.3903 12° North 126 145 7,000  Level Boston Center
Wed 02:13:43 PM 42.8092 -73.3853 North 126 145 7,000  Level Boston Center
Wed 02:14:37 PM 42.8406 -73.3772 11° North 124 143 7,000  Level Boston Center
Wed 02:15:38 PM 42.8781 -73.3694 North 129 148 7,000  Level Boston Center
Wed 02:16:39 PM 42.9136 -73.3614 North 128 147 7,000  Level Boston Center
Wed 02:17:40 PM 42.9469 -73.3561 North 124 143 7,000  Level Boston Center
Wed 02:18:40 PM 42.9825 -73.3511 North 128 147 7,000  Level Boston Center
Wed 02:19:41 PM 43.0178 -73.3458 North 124 143 7,000  Level Boston Center
Wed 02:20:42 PM 43.0511 -73.3436 North 119 137 7,000  Level Boston Center
Wed 02:21:54 PM 43.0908 -73.3356 North 138 159 7,000 46 Level Boston Center
Wed 02:22:52 PM 43.1200 -73.3333 North 126 145 7,100 50 Climbing Boston Center
Wed 02:23:53 PM 43.1597 -73.3339 359° North 121 139 7,100  Level Boston Center
Wed 02:24:53 PM 43.1867 -73.3342 360° North 116 133 7,100  Level Boston Center
Wed 02:25:54 PM 43.2200 -73.3319 North 111 128 7,100  Level Boston Center
Wed 02:26:52 PM 43.2514 -73.3322 360° North 111 128 7,100 -50 Level Boston Center
Wed 02:27:54 PM 43.2889 -73.3300 North 117 135 7,000 -50 Descending Boston Center
Wed 02:28:52 PM 43.3161 -73.3275 North 117 135 7,000  Level Boston Center
Wed 02:29:53 PM 43.3514 -73.3253 North 117 135 7,000  Level Boston Center
Wed 02:30:53 PM 43.3828 -73.3256 360° North 117 135 7,000  Level Boston Center
Wed 02:31:54 PM 43.4222 -73.3233 North 123 142 7,000  Level Boston Center
Wed 02:32:54 PM 43.4556 -73.3239 359° North 123 142 7,000  Level Boston Center
Wed 02:33:54 PM 43.4892 -73.3186 North 123 142 7,000  Level Boston Center
Wed 02:34:55 PM 43.5225 -73.3192 359° North 123 142 7,000  Level Boston Center
Wed 02:35:52 PM 43.5578 -73.3167 North 123 142 7,000  Level Boston Center
Wed 02:36:53 PM 43.5911 -73.3172 359° North 123 142 7,000  Level Boston Center
Wed 02:37:53 PM 43.6267 -73.3150 North 123 142 7,000  Level Boston Center
Wed 02:38:54 PM 43.6622 -73.3097 North 123 142 7,000  Level Boston Center
Wed 02:39:52 PM 43.6956 -73.3103 359° North 123 142 7,000  Level Boston Center
Wed 02:40:52 PM 43.7267 -73.3050 North 123 142 7,000  Level Boston Center
Wed 02:41:53 PM 43.7581 -73.3025 North 118 136 7,000  Level Boston Center
Wed 02:42:53 PM 43.7914 -73.2942 10° North 118 136 7,000 -198 Level Boston Center
Wed 02:43:54 PM 43.8269 -73.2889 North 123 142 6,600 -295 Descending Boston Center
Wed 02:44:55 PM 43.8644 -73.2867 North 129 148 6,400 -305 Descending Boston Center
Wed 02:45:52 PM 43.9019 -73.2786 North 134 154 6,000 -458 Descending Boston Center
Wed 02:46:53 PM 43.9436 -73.2733 North 134 154 5,500 -393 Descending Boston Center
Wed 02:47:54 PM 43.9814 -73.2653 North 141 162 5,200 -298 Descending Boston Center
Wed 02:48:54 PM 44.0189 -73.2542 12° North 141 162 4,900 -305 Descending Boston Center
Wed 02:49:52 PM 44.0586 -73.2461 North 141 162 4,600 -303 Descending Boston Center
Wed 02:50:53 PM 44.0961 -73.2381 North 141 162 4,300 -295 Descending Boston Center
Wed 02:51:54 PM 44.1336 -73.2297 North 141 162 4,000 -295 Descending Boston Center
Wed 02:53:00 PM 44.1688 -73.2078 10° North  Level FlightAware Approximate
Wed 03:00:00 PM 44.3994 -73.1667 North  Level FlightAware Approximate
Wed 03:01:00 PM 44.4323 -73.1586 10° North  Level FlightAware Approximate
Wed 03:02:00 PM 44.4652 -73.1504 10° North  Level FlightAware Approximate
Wed 03:03:00 PM 44.4667 -73.1500 10° North  Level FlightAware Approximate
Wed 03:04:00 PM 44.4719 -73.1533 10° North  Level Estimated
Wed 03:05:00 PM 44.4667 -73.1500 10° North  Level FlightAware Approximate
Wed 03:06:00 PM 44.4719 -73.1533 10° North  Level Estimated
Wed 03:07:00 PM 44.4667 -73.1500 10° North  Level FlightAware Approximate

Login

Don't have an account? Register now (free) for customized features, flight alerts, and more!